createdAt,value
2019-06-10T00:01:34.854Z,14.80
2019-06-10T00:04:22.658Z,14.70
2019-06-10T00:07:11.890Z,14.70
2019-06-10T00:10:01.107Z,14.70
2019-06-10T00:12:51.761Z,14.70
2019-06-10T00:15:40.975Z,14.70
2019-06-10T00:18:38.374Z,14.70
2019-06-10T00:21:19.033Z,14.70
2019-06-10T00:24:08.511Z,14.70
2019-06-10T00:26:57.785Z,14.70
2019-06-10T00:29:46.075Z,14.70
2019-06-10T00:32:33.903Z,14.70
2019-06-10T00:35:22.697Z,14.70
2019-06-10T00:38:13.753Z,14.80
2019-06-10T00:41:02.249Z,14.80
2019-06-10T00:43:48.912Z,14.70
2019-06-10T00:46:36.985Z,14.70
2019-06-10T00:49:25.026Z,14.80
2019-06-10T00:52:14.019Z,14.70
2019-06-10T00:55:04.482Z,14.80
2019-06-10T00:57:51.338Z,14.80
2019-06-10T01:00:41.195Z,14.80
2019-06-10T01:03:31.140Z,14.70
2019-06-10T01:06:18.098Z,14.50
2019-06-10T01:09:08.787Z,14.40
2019-06-10T01:11:57.029Z,14.50
2019-06-10T01:14:44.420Z,14.50
2019-06-10T01:17:32.874Z,14.50
2019-06-10T01:20:21.109Z,14.40
2019-06-10T01:23:11.992Z,14.50
2019-06-10T01:26:01.351Z,14.50
2019-06-10T01:28:47.997Z,14.50
2019-06-10T01:31:36.039Z,14.50
2019-06-10T01:34:23.806Z,14.50
2019-06-10T01:37:13.178Z,14.50
2019-06-10T01:40:00.993Z,14.60
2019-06-10T01:42:50.615Z,14.60
2019-06-10T01:45:38.631Z,14.70
2019-06-10T01:48:40.573Z,14.70
2019-06-10T01:51:21.230Z,14.70
2019-06-10T01:54:09.991Z,14.80
2019-06-10T01:56:57.801Z,14.80
2019-06-10T01:59:45.609Z,14.70
2019-06-10T02:02:35.120Z,14.60
2019-06-10T02:05:23.108Z,14.60
2019-06-10T02:08:12.984Z,14.60
2019-06-10T02:11:01.096Z,14.60
2019-06-10T02:13:51.415Z,14.70
2019-06-10T02:16:38.515Z,14.60
2019-06-10T02:19:26.042Z,14.60
2019-06-10T02:22:17.008Z,14.60
2019-06-10T02:25:03.382Z,14.50
2019-06-10T02:27:51.262Z,14.50
2019-06-10T02:30:49.856Z,14.50
2019-06-10T02:33:32.330Z,14.40
2019-06-10T02:36:22.148Z,14.40
2019-06-10T02:39:08.566Z,14.20
2019-06-10T02:42:04.524Z,14.10
2019-06-10T02:44:54.093Z,14.10
2019-06-10T02:47:44.013Z,14.10
2019-06-10T02:50:56.320Z,14.20
2019-06-10T02:53:44.025Z,14.40
2019-06-10T02:56:36.213Z,14.50
2019-06-10T02:59:26.609Z,14.60
2019-06-10T03:02:13.400Z,14.70
2019-06-10T03:04:59.912Z,14.80
2019-06-10T03:07:47.806Z,14.80
2019-06-10T03:10:37.311Z,14.80
2019-06-10T03:13:25.693Z,14.80
2019-06-10T03:16:28.471Z,14.90
2019-06-10T03:19:16.329Z,14.80
2019-06-10T03:22:04.039Z,14.80
2019-06-10T03:24:52.382Z,14.70
2019-06-10T03:27:42.262Z,14.70
2019-06-10T03:30:44.132Z,14.60
2019-06-10T03:33:20.870Z,14.70
2019-06-10T03:36:08.242Z,14.70
2019-06-10T03:38:56.305Z,14.70
2019-06-10T03:41:44.054Z,14.70
2019-06-10T03:44:33.055Z,14.70
2019-06-10T03:47:21.831Z,14.80
2019-06-10T03:50:13.025Z,14.80
2019-06-10T03:53:03.786Z,14.60
2019-06-10T03:55:49.981Z,14.60
2019-06-10T03:58:37.330Z,14.60
2019-06-10T04:01:28.600Z,14.60
2019-06-10T04:04:14.701Z,14.60
2019-06-10T04:07:03.929Z,14.50
2019-06-10T04:09:52.588Z,14.60
2019-06-10T04:12:43.233Z,14.70
2019-06-10T04:15:32.374Z,14.80
2019-06-10T04:18:19.811Z,14.80
2019-06-10T04:21:07.942Z,14.80
2019-06-10T04:23:55.769Z,15.00
2019-06-10T04:26:43.726Z,15.10
2019-06-10T04:29:32.968Z,15.10
2019-06-10T04:32:22.755Z,15.20
2019-06-10T04:35:12.528Z,14.90
2019-06-10T04:37:59.432Z,14.90
2019-06-10T04:40:46.871Z,14.90
2019-06-10T04:43:34.630Z,14.90
2019-06-10T04:46:23.691Z,15.00
2019-06-10T04:49:13.130Z,15.20
2019-06-10T04:52:03.109Z,15.30
2019-06-10T04:54:52.620Z,15.40
2019-06-10T04:57:39.562Z,15.50
2019-06-10T05:00:29.130Z,15.50
2019-06-10T05:03:17.221Z,15.50
2019-06-10T05:06:04.682Z,15.60
2019-06-10T05:08:53.734Z,15.60
2019-06-10T05:11:43.158Z,15.60
2019-06-10T05:14:33.178Z,15.60
2019-06-10T05:17:21.502Z,15.60
2019-06-10T05:20:12.144Z,15.60
2019-06-10T05:22:59.434Z,15.70
2019-06-10T05:25:47.274Z,15.70
2019-06-10T05:28:34.830Z,15.70
2019-06-10T05:31:26.696Z,15.70
2019-06-10T05:34:13.044Z,15.70
2019-06-10T05:37:02.760Z,15.70
2019-06-10T05:39:52.723Z,15.70
2019-06-10T05:42:42.566Z,15.50
2019-06-10T05:45:30.554Z,15.50
2019-06-10T05:48:18.133Z,15.50
2019-06-10T05:51:06.779Z,15.50
2019-06-10T05:53:54.878Z,15.40
2019-06-10T05:56:43.329Z,15.50
2019-06-10T05:59:31.576Z,15.50
2019-06-10T06:02:22.293Z,15.70
2019-06-10T06:05:10.083Z,15.70
2019-06-10T06:08:04.746Z,15.80
2019-06-10T06:10:46.922Z,15.90
2019-06-10T06:13:36.010Z,16.10
2019-06-10T06:16:23.373Z,16.20
2019-06-10T06:19:12.602Z,16.10
2019-06-10T06:22:02.265Z,16.20
2019-06-10T06:24:52.268Z,16.30
2019-06-10T06:27:42.101Z,16.40
2019-06-10T06:30:30.150Z,16.30
2019-06-10T06:33:17.913Z,16.30
2019-06-10T06:36:05.793Z,16.50
2019-06-10T06:38:54.369Z,16.50
2019-06-10T06:41:42.985Z,16.40
2019-06-10T06:44:33.051Z,16.50
2019-06-10T06:47:22.416Z,16.60
2019-06-10T06:50:09.461Z,16.60
2019-06-10T06:55:47.289Z,16.90
2019-06-10T06:58:36.947Z,17.20
2019-06-10T07:01:25.961Z,17.60
2019-06-10T07:04:14.295Z,17.80
2019-06-10T07:07:02.996Z,18.00
2019-06-10T07:09:52.725Z,18.10
2019-06-10T07:12:43.835Z,18.30
2019-06-10T07:15:46.957Z,18.40
2019-06-10T07:18:35.287Z,18.60
2019-06-10T07:21:22.784Z,18.80
2019-06-10T07:24:12.676Z,19.10
2019-06-10T07:27:02.635Z,19.30
2019-06-10T07:29:49.471Z,19.30
2019-06-10T07:32:38.864Z,19.40
2019-06-10T07:35:26.951Z,19.50
2019-06-10T07:38:15.050Z,19.60
2019-06-10T07:41:02.804Z,19.70
2019-06-10T07:43:52.795Z,19.90
2019-06-10T07:46:43.468Z,20.10
2019-06-10T07:49:32.140Z,20.40
2019-06-10T07:52:20.083Z,20.50
2019-06-10T07:55:08.743Z,20.60
2019-06-10T07:57:56.539Z,20.70
2019-06-10T08:00:48.033Z,20.70
2019-06-10T08:03:35.314Z,20.70
2019-06-10T08:06:24.262Z,21.10
2019-06-10T08:09:12.669Z,21.30
2019-06-10T08:12:05.744Z,21.50
2019-06-10T08:14:53.022Z,21.60
2019-06-10T08:17:42.470Z,21.70
2019-06-10T08:20:48.111Z,21.70
2019-06-10T08:23:37.027Z,21.70
2019-06-10T08:26:25.291Z,22.00
2019-06-10T08:29:13.512Z,22.10
2019-06-10T08:32:03.352Z,22.30
2019-06-10T08:34:52.866Z,22.40
2019-06-10T08:37:42.779Z,22.50
2019-06-10T08:40:32.431Z,22.40
2019-06-10T08:43:19.244Z,22.40
2019-06-10T08:46:06.960Z,22.40
2019-06-10T08:48:54.797Z,22.20
2019-06-10T08:51:46.629Z,22.30
2019-06-10T08:54:32.516Z,22.60
2019-06-10T08:57:20.196Z,22.40
2019-06-10T09:00:12.564Z,22.50
2019-06-10T09:02:58.454Z,22.70
2019-06-10T09:05:49.336Z,22.80
2019-06-10T09:08:35.798Z,23.00
2019-06-10T09:11:24.016Z,23.10
2019-06-10T09:14:12.627Z,23.30
2019-06-10T09:17:03.216Z,23.30
2019-06-10T09:19:51.291Z,23.30
2019-06-10T09:22:41.168Z,23.50
2019-06-10T09:25:28.620Z,23.30
2019-06-10T09:28:16.389Z,23.60
2019-06-10T09:31:05.301Z,23.60
2019-06-10T09:33:56.931Z,23.80
2019-06-10T09:36:46.572Z,24.00
2019-06-10T09:39:32.878Z,24.10
2019-06-10T09:42:25.803Z,24.10
2019-06-10T09:45:14.753Z,24.30
2019-06-10T09:48:04.067Z,24.40
2019-06-10T09:50:57.899Z,24.60
2019-06-10T09:53:54.561Z,24.50
2019-06-10T09:56:35.680Z,24.30
2019-06-10T09:59:26.431Z,24.20
2019-06-10T10:02:22.452Z,24.00
2019-06-10T10:05:13.224Z,23.90
2019-06-10T10:08:02.414Z,23.50
2019-06-10T10:10:57.777Z,23.30
2019-06-10T10:13:45.034Z,23.30
2019-06-10T10:16:30.047Z,23.00
2019-06-10T10:19:18.005Z,22.90
2019-06-10T10:22:06.347Z,22.90
2019-06-10T10:24:56.460Z,23.00
2019-06-10T10:27:48.890Z,23.30
2019-06-10T10:30:33.662Z,23.20
2019-06-10T10:33:26.806Z,23.00
2019-06-10T10:36:13.246Z,22.90
2019-06-10T10:39:02.463Z,23.00
2019-06-10T10:41:56.619Z,22.70
2019-06-10T10:44:46.151Z,22.50
2019-06-10T10:47:33.649Z,22.50
2019-06-10T10:50:22.517Z,22.70
2019-06-10T10:53:12.844Z,22.70
2019-06-10T10:56:02.211Z,22.60
2019-06-10T10:58:51.614Z,22.40
2019-06-10T11:01:42.308Z,22.20
2019-06-10T11:04:33.644Z,22.10
2019-06-10T11:07:22.433Z,22.00
2019-06-10T11:10:12.665Z,22.00
2019-06-10T11:13:06.127Z,21.80
2019-06-10T11:15:56.411Z,21.90
2019-06-10T11:18:43.985Z,22.10
2019-06-10T11:21:33.039Z,22.20
2019-06-10T11:24:33.547Z,22.10
2019-06-10T11:27:12.708Z,22.30
2019-06-10T11:30:02.461Z,22.50
2019-06-10T11:32:53.552Z,22.80
2019-06-10T11:35:39.721Z,23.10
2019-06-10T11:38:27.459Z,23.40
2019-06-10T11:41:15.077Z,23.60
2019-06-10T11:44:02.921Z,23.70
2019-06-10T11:46:54.068Z,23.90
2019-06-10T11:49:43.626Z,24.00
2019-06-10T11:52:33.476Z,23.70
2019-06-10T11:55:23.816Z,23.60
2019-06-10T11:58:10.784Z,23.90
2019-06-10T12:01:00.203Z,23.80
2019-06-10T12:03:48.474Z,23.80
2019-06-10T12:06:36.381Z,23.90
2019-06-10T12:09:27.263Z,24.30
2019-06-10T12:12:15.400Z,24.20
2019-06-10T12:15:03.349Z,24.40
2019-06-10T12:18:01.793Z,24.80
2019-06-10T12:20:42.892Z,24.80
2019-06-10T12:23:33.372Z,25.00
2019-06-10T12:26:19.806Z,25.10
2019-06-10T12:29:07.522Z,25.30
2019-06-10T12:31:58.442Z,25.30
2019-06-10T12:34:46.309Z,25.00
2019-06-10T12:37:34.602Z,25.00
2019-06-10T12:40:22.751Z,25.30
2019-06-10T12:43:12.681Z,25.30
2019-06-10T12:46:00.931Z,25.10
2019-06-10T12:48:49.605Z,25.00
2019-06-10T12:51:37.258Z,25.10
2019-06-10T12:54:24.773Z,25.30
2019-06-10T12:57:12.551Z,25.70
2019-06-10T13:00:14.400Z,25.70
2019-06-10T13:02:53.115Z,25.90
2019-06-10T13:05:42.626Z,26.00
2019-06-10T13:08:34.622Z,25.90
2019-06-10T13:11:23.405Z,25.70
2019-06-10T13:14:13.006Z,25.60
2019-06-10T13:17:02.958Z,25.50
2019-06-10T13:19:50.458Z,25.90
2019-06-10T13:22:38.310Z,26.00
2019-06-10T13:25:26.335Z,25.90
2019-06-10T13:28:14.649Z,25.80
2019-06-10T13:31:06.188Z,25.80
2019-06-10T13:33:52.880Z,26.00
2019-06-10T13:36:42.258Z,26.20
2019-06-10T13:39:32.441Z,26.40
2019-06-10T13:42:22.563Z,26.50
2019-06-10T13:45:10.600Z,26.60
2019-06-10T13:47:58.876Z,26.70
2019-06-10T13:50:47.985Z,26.70
2019-06-10T13:53:35.787Z,26.80
2019-06-10T13:56:45.528Z,26.70
2019-06-10T13:59:14.324Z,26.70
2019-06-10T14:02:03.909Z,26.50
2019-06-10T14:04:53.312Z,26.60
2019-06-10T14:07:43.229Z,26.90
2019-06-10T14:10:33.583Z,26.90
2019-06-10T14:13:23.893Z,27.00
2019-06-10T14:16:14.147Z,26.80
2019-06-10T14:19:02.125Z,26.80
2019-06-10T14:21:50.172Z,26.60
2019-06-10T14:24:37.606Z,26.70
2019-06-10T14:27:25.650Z,26.90
2019-06-10T14:30:15.384Z,26.70
2019-06-10T14:33:04.229Z,26.70
2019-06-10T14:35:53.538Z,26.90
2019-06-10T14:38:42.102Z,26.80
2019-06-10T14:41:32.555Z,26.90
2019-06-10T14:44:19.431Z,26.80
2019-06-10T14:47:08.757Z,26.70
2019-06-10T14:49:57.790Z,27.10
2019-06-10T14:52:45.561Z,27.50
2019-06-10T14:55:33.996Z,27.40
2019-06-10T14:58:23.086Z,27.30
2019-06-10T15:01:13.387Z,27.70
2019-06-10T15:04:02.812Z,27.90
2019-06-10T15:06:50.100Z,28.00
2019-06-10T15:09:37.670Z,28.70
2019-06-10T15:12:25.938Z,28.10
2019-06-10T15:15:14.495Z,27.50
2019-06-10T15:18:02.946Z,26.90
2019-06-10T15:20:53.146Z,26.40
2019-06-10T15:23:42.751Z,26.30
2019-06-10T15:26:29.926Z,25.70
2019-06-10T15:29:18.969Z,24.70
2019-06-10T15:32:17.192Z,23.60
2019-06-10T15:34:57.233Z,22.30
2019-06-10T15:37:45.559Z,21.90
2019-06-10T15:40:33.317Z,21.10
2019-06-10T15:43:23.415Z,20.20
2019-06-10T15:46:12.511Z,19.50
2019-06-10T15:48:59.332Z,19.30
2019-06-10T15:51:47.054Z,18.90
2019-06-10T15:54:35.315Z,18.60
2019-06-10T15:57:38.525Z,18.30
2019-06-10T16:00:17.632Z,18.20
2019-06-10T16:03:02.617Z,17.90
2019-06-10T16:05:52.488Z,18.10
2019-06-10T16:08:40.085Z,18.20
2019-06-10T16:11:28.152Z,18.20
2019-06-10T16:14:16.710Z,18.30
2019-06-10T16:17:04.813Z,18.40
2019-06-10T16:19:53.338Z,18.20
2019-06-10T16:22:42.811Z,18.00
2019-06-10T16:25:31.023Z,17.80
2019-06-10T16:28:20.185Z,17.50
2019-06-10T16:31:08.397Z,17.40
2019-06-10T16:33:56.086Z,17.30
2019-06-10T16:36:43.908Z,17.20
2019-06-10T16:39:32.542Z,17.10
2019-06-10T16:42:22.973Z,17.10
2019-06-10T16:45:12.569Z,17.10
2019-06-10T16:48:02.249Z,17.30
2019-06-10T16:50:49.282Z,17.40
2019-06-10T16:53:37.063Z,17.70
2019-06-10T16:56:26.441Z,17.50
2019-06-10T16:59:13.993Z,17.40
2019-06-10T17:02:02.427Z,17.70
2019-06-10T17:04:52.518Z,17.90
2019-06-10T17:07:39.772Z,17.80
2019-06-10T17:10:29.549Z,18.00
2019-06-10T17:13:18.963Z,18.70
2019-06-10T17:16:07.033Z,19.70
2019-06-10T17:18:55.049Z,20.80
2019-06-10T17:21:43.463Z,21.00
2019-06-10T17:24:33.613Z,22.40
2019-06-10T17:27:23.259Z,23.30
2019-06-10T17:30:13.191Z,22.90
2019-06-10T17:33:02.351Z,23.20
2019-06-10T17:35:52.462Z,23.00
2019-06-10T17:38:40.072Z,21.50
2019-06-10T17:41:30.293Z,20.80
2019-06-10T17:44:17.536Z,20.00
2019-06-10T17:47:05.528Z,19.40
2019-06-10T17:49:52.943Z,19.60
2019-06-10T17:52:42.674Z,19.80
2019-06-10T17:55:33.670Z,19.60
2019-06-10T17:58:37.645Z,19.00
2019-06-10T18:01:09.627Z,18.80
2019-06-10T18:03:57.191Z,18.80
2019-06-10T18:06:44.861Z,18.80
2019-06-10T18:09:35.418Z,18.90
2019-06-10T18:12:22.338Z,18.60
2019-06-10T18:15:12.587Z,18.50
2019-06-10T18:18:03.308Z,18.40
2019-06-10T18:20:53.294Z,18.40
2019-06-10T18:23:39.375Z,18.40
2019-06-10T18:26:26.826Z,18.50
2019-06-10T18:29:14.800Z,18.40
2019-06-10T18:32:03.445Z,18.60
2019-06-10T18:34:52.133Z,18.50
2019-06-10T18:37:42.220Z,18.30
2019-06-10T18:40:29.882Z,18.40
2019-06-10T18:43:18.278Z,18.50
2019-06-10T18:46:06.464Z,18.50
2019-06-10T18:48:54.495Z,18.50
2019-06-10T18:51:43.459Z,18.60
2019-06-10T18:54:34.428Z,18.60
2019-06-10T18:57:22.501Z,18.50
2019-06-10T19:00:13.749Z,18.50
2019-06-10T19:03:10.220Z,18.40
2019-06-10T19:05:48.201Z,18.50
2019-06-10T19:08:38.880Z,18.10
2019-06-10T19:11:25.849Z,18.10
2019-06-10T19:14:13.698Z,18.10
2019-06-10T19:17:02.988Z,17.80
2019-06-10T19:19:53.266Z,18.00
2019-06-10T19:22:43.071Z,18.00
2019-06-10T19:25:33.118Z,17.80
2019-06-10T19:28:19.702Z,17.90
2019-06-10T19:31:07.697Z,17.80
2019-06-10T19:33:55.315Z,17.80
2019-06-10T19:36:43.271Z,17.90
2019-06-10T19:39:35.259Z,17.80
2019-06-10T19:42:20.242Z,17.90
2019-06-10T19:45:08.377Z,18.00
2019-06-10T19:47:56.745Z,18.00
2019-06-10T19:50:50.276Z,17.70
2019-06-10T19:53:34.563Z,17.70
2019-06-10T19:56:26.383Z,17.70
2019-06-10T19:59:13.516Z,17.80
2019-06-10T20:02:03.375Z,17.70
2019-06-10T20:04:52.820Z,17.60
2019-06-10T20:07:43.952Z,17.50
2019-06-10T20:10:32.219Z,17.60
2019-06-10T20:13:19.073Z,17.70
2019-06-10T20:16:06.969Z,17.80
2019-06-10T20:18:55.081Z,17.80
2019-06-10T20:21:44.976Z,17.90
2019-06-10T20:24:34.025Z,17.90
2019-06-10T20:27:22.715Z,17.90
2019-06-10T20:30:24.129Z,17.90
2019-06-10T20:33:03.414Z,17.90
2019-06-10T20:35:50.304Z,17.90
2019-06-10T20:38:38.805Z,17.50
2019-06-10T20:41:27.383Z,17.60
2019-06-10T20:44:15.447Z,17.60
2019-06-10T20:47:03.584Z,17.60
2019-06-10T20:49:55.819Z,17.60
2019-06-10T20:52:44.239Z,17.60
2019-06-10T20:55:40.349Z,17.60
2019-06-10T20:58:19.620Z,17.60
2019-06-10T21:01:07.090Z,17.70
2019-06-10T21:03:54.863Z,17.70
2019-06-10T21:06:43.641Z,17.80
2019-06-10T21:09:32.703Z,17.80
2019-06-10T21:12:22.221Z,17.80
2019-06-10T21:15:12.457Z,17.80
2019-06-10T21:17:59.717Z,17.60
2019-06-10T21:20:51.173Z,17.70
2019-06-10T21:23:37.807Z,17.50
2019-06-10T21:26:25.813Z,17.40
2019-06-10T21:29:13.925Z,17.50
2019-06-10T21:32:03.559Z,17.50
2019-06-10T21:34:53.730Z,17.50
2019-06-10T21:37:44.892Z,17.50
2019-06-10T21:40:29.943Z,17.50
2019-06-10T21:43:18.109Z,17.50
2019-06-10T21:46:06.019Z,17.40
2019-06-10T21:48:55.879Z,17.20
2019-06-10T21:51:45.329Z,17.00
2019-06-10T21:54:33.030Z,17.00
2019-06-10T21:57:22.085Z,16.90
2019-06-10T22:00:14.036Z,17.00
2019-06-10T22:03:02.501Z,16.90
2019-06-10T22:05:53.806Z,16.70
2019-06-10T22:08:44.164Z,16.80
2019-06-10T22:11:32.002Z,16.60
2019-06-10T22:14:19.632Z,16.70
2019-06-10T22:17:07.433Z,16.70
2019-06-10T22:19:56.487Z,16.70
2019-06-10T22:22:44.442Z,16.60
2019-06-10T22:25:32.887Z,16.70
2019-06-10T22:28:22.205Z,16.80
2019-06-10T22:31:19.777Z,16.90
2019-06-10T22:33:59.706Z,16.90
2019-06-10T22:36:47.576Z,17.00
2019-06-10T22:39:35.135Z,17.00
2019-06-10T22:42:22.881Z,17.10
2019-06-10T22:45:13.049Z,17.10
2019-06-10T22:48:02.780Z,17.10
2019-06-10T22:50:49.606Z,17.20
2019-06-10T22:53:37.325Z,17.20
2019-06-10T22:56:24.711Z,17.10
2019-06-10T22:59:13.199Z,17.10
2019-06-10T23:02:03.090Z,17.10
2019-06-10T23:04:51.931Z,17.10
2019-06-10T23:07:39.413Z,17.10
2019-06-10T23:10:27.539Z,17.10
2019-06-10T23:13:17.055Z,17.00
2019-06-10T23:16:04.114Z,17.00
2019-06-10T23:18:54.060Z,17.00
2019-06-10T23:21:42.448Z,16.90
2019-06-10T23:24:32.008Z,17.00
2019-06-10T23:27:19.101Z,17.10
2019-06-10T23:30:11.554Z,17.10
2019-06-10T23:32:56.513Z,17.10
2019-06-10T23:35:47.598Z,17.20
2019-06-10T23:38:34.361Z,17.20
2019-06-10T23:41:22.486Z,17.20
2019-06-10T23:44:12.108Z,17.10
2019-06-10T23:46:59.416Z,17.10
2019-06-10T23:49:47.033Z,17.10
2019-06-10T23:52:34.700Z,17.10
2019-06-10T23:55:22.959Z,17.10
2019-06-10T23:58:13.016Z,17.10
